Terminal Aerodrome Forecast
Issued by NWS

Home | Current Version | Previous Version | Text Only | Print | Product List | Glossary Off
Versions: 1 2 3 4 5 6 7 8 9 10 11 12 13 14 15 16 17 18 19 20 21 22 23 24 25 26 27

000
FTUS43 KMPX 290637 AAB
TAFRWF
TAF AMD
KRWF 290637Z 2907/3006 14002KT 1/2SM FG SKC
      TEMPO 2907/2909 3SM BR
     FM290900 16002KT 3SM BR SCT012
      TEMPO 2910/2913 6SM BR BKN012
     FM291400 17005KT P6SM SKC=

USA.gov is the U.S. government's official web portal to all federal, state and local government web resources and services.